Terminal Aerodrome Forecast
Issued by NWS Sioux Falls, SD

Home | Current Version | Previous Version | Graphics & Text | Print | Product List | Glossary Off
Versions: 1 2 3 4 5 6 7 8 9 10 11 12 13 14 15 16

000
FTUS43 KFSD 202320
TAFSUX
TAF
KSUX 202320Z 2100/2124 08006KT P6SM SCT050 BKN120
     FM210500 11008KT P6SM BKN200
     FM211100 12008KT P6SM -SHRA VCTS SCT050CB BKN100
     FM211400 17009KT P6SM SCT120 SCT200
     FM211800 18012KT P6SM SCT200=

USA.gov is the U.S. government's official web portal to all federal, state and local government web resources and services.